Time;durP1;ratioP1;P1;durP2;ratioP2;P2;SDS_P1;SDS_P2;PMS_P1;PMS_P2;Temp;Humidity;BMP_temperature;BMP_pressure;BME280_temperature;BME280_humidity;BME280_pressure;Samples;Min_cycle;Max_cycle;Signal;HPM_P1;HPM_P2
2023/04/01 00:00:09;;;;;;;31.13;14.13;;;;;;;-145.18;100.00;60484.78;5050590;28;20040;-64
2023/04/01 00:02:35;;;;;;;28.80;13.43;;;;;;;-145.18;100.00;60484.78;5034615;28;20398;-64
2023/04/01 00:05:01;;;;;;;29.10;14.43;;;;;;;-145.18;100.00;60484.78;5043756;28;20039;-64
2023/04/01 00:07:27;;;;;;;29.77;14.53;;;;;;;-145.18;100.00;60484.78;5052325;28;20029;-64
2023/04/01 00:09:52;;;;;;;26.97;13.50;;;;;;;-145.18;100.00;60484.78;5038888;28;20408;-64
2023/04/01 00:12:18;;;;;;;30.33;14.87;;;;;;;-145.18;100.00;60484.78;5043409;28;20524;-63
2023/04/01 00:14:44;;;;;;;29.33;14.40;;;;;;;-145.18;100.00;60484.78;5049282;28;20559;-63
2023/04/01 00:17:10;;;;;;;32.03;14.47;;;;;;;-145.18;100.00;60484.78;5049891;28;20112;-63
2023/04/01 00:19:36;;;;;;;28.80;14.53;;;;;;;-145.18;100.00;60484.78;5051556;28;20033;-63
2023/04/01 00:22:02;;;;;;;28.43;14.43;;;;;;;-145.18;100.00;60484.78;5036551;28;20032;-63
2023/04/01 00:24:28;;;;;;;28.87;13.10;;;;;;;-145.18;100.00;60484.78;5037351;28;20041;-63
2023/04/01 00:26:54;;;;;;;27.27;12.87;;;;;;;-145.18;100.00;60484.78;5034733;28;20025;-63
2023/04/01 00:29:20;;;;;;;27.27;13.43;;;;;;;-145.18;100.00;60484.78;5051708;28;20551;-63
2023/04/01 00:31:46;;;;;;;24.40;13.17;;;;;;;-145.18;100.00;60484.78;5034984;28;20030;-63
2023/04/01 00:34:12;;;;;;;21.27;11.20;;;;;;;-145.18;100.00;60484.78;5050867;28;20025;-63
2023/04/01 00:36:38;;;;;;;25.60;13.10;;;;;;;-145.18;100.00;60484.78;5035470;28;20444;-64
2023/04/01 00:39:04;;;;;;;23.23;11.63;;;;;;;-145.18;100.00;60484.78;5038438;28;20096;-63
2023/04/01 00:41:29;;;;;;;28.07;12.67;;;;;;;-145.18;100.00;60484.78;5037433;28;20041;-64
2023/04/01 00:44:16;;;;;;;25.37;13.03;;;;;;;-145.18;100.00;60484.78;5049497;28;20037;-64
2023/04/01 00:46:41;;;;;;;24.13;11.97;;;;;;;-145.18;100.00;60484.78;5048379;28;20087;-64
2023/04/01 00:49:08;;;;;;;24.40;11.53;;;;;;;-145.18;100.00;60484.78;5042176;28;20033;-65
2023/04/01 00:51:36;;;;;;;26.17;12.80;;;;;;;-145.18;100.00;60484.78;5036321;28;20041;-64
2023/04/01 00:54:03;;;;;;;23.33;12.03;;;;;;;-145.18;100.00;60484.78;5039200;28;20543;-64
2023/04/01 00:56:40;;;;;;;21.50;10.87;;;;;;;-145.18;100.00;60484.78;5034223;28;20040;-64
2023/04/01 00:59:14;;;;;;;25.80;12.60;;;;;;;-145.18;100.00;60484.78;5037009;28;20037;-65
2023/04/01 01:04:29;;;;;;;25.47;12.53;;;;;;;-145.18;100.00;60484.78;5026558;28;20041;-65
2023/04/01 01:07:14;;;;;;;24.50;12.50;;;;;;;-145.18;100.00;60484.78;5021506;28;20017;-65
2023/04/01 01:10:23;;;;;;;25.23;13.53;;;;;;;-145.18;100.00;60484.78;5019193;28;20025;-65
2023/04/01 01:13:23;;;;;;;20.77;11.60;;;;;;;-145.18;100.00;60484.78;4947389;28;20420;-64
2023/04/01 01:16:00;;;;;;;24.13;11.80;;;;;;;-145.18;100.00;60484.78;4871890;29;20059;-64
2023/04/01 01:19:12;;;;;;;21.53;11.07;;;;;;;-145.18;100.00;60484.78;4874123;29;20049;-64
2023/04/01 01:22:05;;;;;;;24.63;12.85;;;;;;;-145.18;100.00;60484.78;4835129;29;20042;-64
2023/04/01 01:25:18;;;;;;;21.53;11.87;;;;;;;-145.18;100.00;60484.78;4820276;29;20042;-64
2023/04/01 01:27:54;;;;;;;23.77;13.37;;;;;;;-145.18;100.00;60484.78;4822302;29;20530;-64
2023/04/01 01:30:51;;;;;;;27.83;12.87;;;;;;;-145.18;100.00;60484.78;4819508;29;20038;-64
2023/04/01 01:33:46;;;;;;;24.63;13.43;;;;;;;-145.18;100.00;60484.78;4820322;29;20259;-64
2023/04/01 01:36:15;;;;;;;25.60;13.63;;;;;;;-145.18;100.00;60484.78;4764081;30;20056;-64
2023/04/01 01:38:41;;;;;;;23.73;11.43;;;;;;;-145.18;100.00;60484.78;4766975;30;20040;-64
2023/04/01 01:41:09;;;;;;;27.30;13.50;;;;;;;-145.18;100.00;60484.78;4770507;30;20624;-64
2023/04/01 01:43:45;;;;;;;26.47;14.00;;;;;;;-145.18;100.00;60484.78;4763142;30;20048;-64
2023/04/01 01:46:16;;;;;;;24.97;13.83;;;;;;;-145.18;100.00;60484.78;4769012;30;20622;-64
2023/04/01 01:48:43;;;;;;;26.67;13.53;;;;;;;-145.18;100.00;60484.78;4767054;30;20158;-64
2023/04/01 01:51:09;;;;;;;28.67;13.63;;;;;;;-145.18;100.00;60484.78;4768045;30;20386;-64
2023/04/01 01:53:35;;;;;;;27.83;12.87;;;;;;;-145.18;100.00;60484.78;4818055;29;20045;-64
2023/04/01 01:56:00;;;;;;;25.33;12.67;;;;;;;-145.18;100.00;60484.78;4821655;29;20117;-64
2023/04/01 01:58:52;;;;;;;23.90;12.33;;;;;;;-145.18;100.00;60484.78;4854554;29;20052;-64
2023/04/01 02:01:23;;;;;;;21.63;12.18;;;;;;;-145.18;100.00;60484.78;4877776;29;20104;-64
2023/04/01 02:03:50;;;;;;;23.27;11.60;;;;;;;-145.18;100.00;60484.78;4930705;28;20044;-63
2023/04/01 02:06:20;;;;;;;27.47;13.33;;;;;;;-145.18;100.00;60484.78;4950327;29;20058;-64
2023/04/01 02:09:07;;;;;;;27.93;12.93;;;;;;;-145.18;100.00;60484.78;4949458;29;20039;-64
2023/04/01 02:12:13;;;;;;;26.57;13.73;;;;;;;-145.18;100.00;60484.78;4984198;28;20119;-64
2023/04/01 02:14:47;;;;;;;22.00;12.17;;;;;;;-145.18;100.00;60484.78;4954493;28;20035;-64
2023/04/01 02:17:26;;;;;;;24.63;12.70;;;;;;;-145.18;100.00;60484.78;4954722;28;20031;-64
2023/04/01 02:19:56;;;;;;;22.90;11.60;;;;;;;-145.18;100.00;60484.78;4956118;28;20039;-64
2023/04/01 02:22:26;;;;;;;26.20;12.37;;;;;;;-145.18;100.00;60484.78;4954009;28;20024;-64
2023/04/01 02:24:57;;;;;;;26.40;12.97;;;;;;;-145.18;100.00;60484.78;4957054;28;20050;-64
2023/04/01 02:27:23;;;;;;;21.80;12.35;;;;;;;-145.18;100.00;60484.78;4963830;28;20051;-68
2023/04/01 02:29:50;;;;;;;23.47;11.53;;;;;;;-145.18;100.00;60484.78;4953998;28;20511;-68
2023/04/01 02:32:17;;;;;;;22.87;12.27;;;;;;;-145.18;100.00;60484.78;4954761;28;20047;-68
2023/04/01 02:34:43;;;;;;;22.73;11.93;;;;;;;-145.18;100.00;60484.78;4950142;28;20478;-68
2023/04/01 02:37:10;;;;;;;23.97;11.27;;;;;;;-145.18;100.00;60484.78;4954044;28;20035;-68
2023/04/01 02:39:35;;;;;;;21.73;10.47;;;;;;;-145.18;100.00;60484.78;4956996;28;20070;-68
2023/04/01 02:42:01;;;;;;;24.20;11.40;;;;;;;-145.18;100.00;60484.78;4954139;28;20141;-68
2023/04/01 02:44:26;;;;;;;18.23;8.90;;;;;;;-145.18;100.00;60484.78;4964960;28;20158;-65
2023/04/01 02:46:52;;;;;;;21.33;11.20;;;;;;;-145.18;100.00;60484.78;5015023;28;20105;-65
2023/04/01 02:49:18;;;;;;;20.53;10.07;;;;;;;-145.18;100.00;60484.78;5018091;28;20041;-65
2023/04/01 02:51:43;;;;;;;22.60;10.90;;;;;;;-145.18;100.00;60484.78;5020494;28;20057;-65
2023/04/01 02:54:09;;;;;;;20.37;10.90;;;;;;;-145.18;100.00;60484.78;5029631;28;20049;-65
2023/04/01 02:56:34;;;;;;;17.37;8.53;;;;;;;-145.18;100.00;60484.78;5014673;28;20470;-64
2023/04/01 02:59:00;;;;;;;20.17;9.77;;;;;;;-145.18;100.00;60484.78;5013763;28;20164;-65
2023/04/01 03:01:25;;;;;;;17.77;9.93;;;;;;;-145.18;100.00;60484.78;5012975;28;20033;-65
2023/04/01 03:03:51;;;;;;;20.47;10.73;;;;;;;-145.18;100.00;60484.78;5016127;28;20547;-65
2023/04/01 03:06:17;;;;;;;17.40;8.33;;;;;;;-145.18;100.00;60484.78;5033399;28;20036;-64
2023/04/01 03:08:43;;;;;;;18.37;9.50;;;;;;;-145.18;100.00;60484.78;5022387;28;20117;-65
2023/04/01 03:11:09;;;;;;;20.27;9.50;;;;;;;-145.18;100.00;60484.78;5013586;28;20065;-65
2023/04/01 03:13:35;;;;;;;18.33;9.00;;;;;;;-145.18;100.00;60484.78;5014344;28;20086;-65
2023/04/01 03:16:00;;;;;;;20.27;9.27;;;;;;;-145.18;100.00;60484.78;5011902;28;20066;-66
2023/04/01 03:18:26;;;;;;;18.73;9.47;;;;;;;-145.18;100.00;60484.78;4996168;28;20389;-65
2023/04/01 03:20:51;;;;;;;20.17;9.03;;;;;;;-145.18;100.00;60484.78;5013818;28;20552;-66
2023/04/01 03:23:19;;;;;;;15.23;8.00;;;;;;;-145.18;100.00;60484.78;5013910;28;20205;-66
2023/04/01 03:25:45;;;;;;;16.57;8.23;;;;;;;-145.18;100.00;60484.78;5013807;28;20418;-65
2023/04/01 03:28:10;;;;;;;15.77;8.40;;;;;;;-145.18;100.00;60484.78;5012593;28;20470;-66
2023/04/01 03:30:36;;;;;;;15.90;7.90;;;;;;;-145.18;100.00;60484.78;5011729;28;20030;-65
2023/04/01 03:33:01;;;;;;;18.57;8.87;;;;;;;-145.18;100.00;60484.78;5015443;28;20084;-65
2023/04/01 03:35:27;;;;;;;18.67;8.90;;;;;;;-145.18;100.00;60484.78;5017419;28;20029;-65
2023/04/01 03:37:53;;;;;;;15.87;7.13;;;;;;;-145.18;100.00;60484.78;5026339;28;20037;-65
2023/04/01 03:40:20;;;;;;;16.97;8.57;;;;;;;-145.18;100.00;60484.78;5011796;28;20491;-66
2023/04/01 03:42:45;;;;;;;14.67;7.20;;;;;;;-145.18;100.00;60484.78;5015668;28;20034;-66
2023/04/01 03:45:11;;;;;;;15.10;7.63;;;;;;;-145.18;100.00;60484.78;5013051;28;20547;-65
2023/04/01 03:47:38;;;;;;;16.07;8.10;;;;;;;-145.18;100.00;60484.78;5012962;28;20446;-65
2023/04/01 03:50:05;;;;;;;16.17;8.53;;;;;;;-145.18;100.00;60484.78;5012931;28;20399;-66
2023/04/01 03:52:30;;;;;;;15.40;8.77;;;;;;;-145.18;100.00;60484.78;5012113;28;20492;-66
2023/04/01 03:54:56;;;;;;;16.93;8.60;;;;;;;-145.18;100.00;60484.78;5013830;28;20037;-65
2023/04/01 03:57:21;;;;;;;19.83;8.53;;;;;;;-145.18;100.00;60484.78;5012854;28;20040;-67
2023/04/01 03:59:47;;;;;;;15.67;7.90;;;;;;;-145.18;100.00;60484.78;5012593;28;20363;-68
2023/04/01 04:02:12;;;;;;;15.77;7.50;;;;;;;-145.18;100.00;60484.78;5010110;28;20522;-67
2023/04/01 04:04:38;;;;;;;15.10;6.77;;;;;;;-145.18;100.00;60484.78;5028494;28;20029;-67
2023/04/01 04:07:04;;;;;;;13.10;6.57;;;;;;;-145.18;100.00;60484.78;5015595;28;20037;-67
2023/04/01 04:09:33;;;;;;;14.07;6.33;;;;;;;-145.18;100.00;60484.78;5012230;28;20489;-67
2023/04/01 04:11:58;;;;;;;14.30;6.77;;;;;;;-145.18;100.00;60484.78;5013640;28;20107;-67
2023/04/01 04:14:24;;;;;;;11.63;6.47;;;;;;;-145.18;100.00;60484.78;5011337;28;20124;-67
2023/04/01 04:16:49;;;;;;;14.03;6.27;;;;;;;-145.18;100.00;60484.78;5013107;28;20494;-67
2023/04/01 04:19:15;;;;;;;12.57;6.40;;;;;;;-145.18;100.00;60484.78;5012012;28;20080;-67
2023/04/01 04:21:41;;;;;;;12.83;6.47;;;;;;;-145.18;100.00;60484.78;5013445;28;20034;-65
2023/04/01 04:24:07;;;;;;;10.27;4.97;;;;;;;-145.18;100.00;60484.78;5012704;28;20126;-65
2023/04/01 04:26:33;;;;;;;11.50;5.83;;;;;;;-145.18;100.00;60484.78;5012435;28;20100;-65
2023/04/01 04:28:58;;;;;;;12.77;5.17;;;;;;;-145.18;100.00;60484.78;5011566;28;20025;-65
2023/04/01 04:31:25;;;;;;;10.57;5.23;;;;;;;-145.18;100.00;60484.78;5012293;28;20470;-67
2023/04/01 04:33:51;;;;;;;10.80;5.20;;;;;;;-145.18;100.00;60484.78;5010356;28;20022;-68
2023/04/01 04:36:17;;;;;;;13.33;5.80;;;;;;;-145.18;100.00;60484.78;5013053;28;20096;-67
2023/04/01 04:38:43;;;;;;;9.20;4.93;;;;;;;-145.18;100.00;60484.78;5010413;28;20041;-67
2023/04/01 04:41:14;;;;;;;9.17;4.80;;;;;;;-145.18;100.00;60484.78;5016935;28;20029;-67
2023/04/01 04:43:40;;;;;;;10.23;5.03;;;;;;;-145.18;100.00;60484.78;5012158;28;20042;-67
2023/04/01 04:46:10;;;;;;;9.20;4.80;;;;;;;-145.18;100.00;60484.78;5012593;28;20052;-68
2023/04/01 04:48:36;;;;;;;9.40;4.50;;;;;;;-145.18;100.00;60484.78;5007788;28;20036;-67
2023/04/01 04:51:02;;;;;;;9.83;4.63;;;;;;;-145.18;100.00;60484.78;5010775;28;20034;-66
2023/04/01 04:53:28;;;;;;;9.93;4.63;;;;;;;-145.18;100.00;60484.78;5012146;28;20551;-67
2023/04/01 04:55:54;;;;;;;8.93;5.33;;;;;;;-145.18;100.00;60484.78;5012869;28;20034;-67
2023/04/01 04:58:19;;;;;;;8.80;4.23;;;;;;;-145.18;100.00;60484.78;5011756;28;20517;-66
2023/04/01 05:00:46;;;;;;;8.83;4.77;;;;;;;-145.18;100.00;60484.78;5010739;28;20029;-66
2023/04/01 05:03:12;;;;;;;11.13;5.40;;;;;;;-145.18;100.00;60484.78;5009828;28;20038;-66
2023/04/01 05:05:38;;;;;;;11.20;5.10;;;;;;;-145.18;100.00;60484.78;5011229;28;20040;-66
2023/04/01 05:08:04;;;;;;;8.87;5.00;;;;;;;-145.18;100.00;60484.78;5012971;28;20408;-66
2023/04/01 05:10:30;;;;;;;11.20;5.43;;;;;;;-145.18;100.00;60484.78;5013610;28;20080;-66
2023/04/01 05:12:55;;;;;;;12.10;6.40;;;;;;;-145.18;100.00;60484.78;5012543;28;20034;-66
2023/04/01 05:15:21;;;;;;;12.20;6.30;;;;;;;-145.18;100.00;60484.78;5009855;28;20045;-66
2023/04/01 05:17:47;;;;;;;10.93;5.67;;;;;;;-145.18;100.00;60484.78;5012224;28;20045;-66
2023/04/01 05:20:13;;;;;;;8.30;3.97;;;;;;;-145.18;100.00;60484.78;5026103;28;20473;-66
2023/04/01 05:22:39;;;;;;;10.00;5.40;;;;;;;-145.18;100.00;60484.78;5008405;28;20030;-66
2023/04/01 05:25:05;;;;;;;10.80;5.33;;;;;;;-145.18;100.00;60484.78;5011163;28;20034;-67
2023/04/01 05:27:31;;;;;;;10.70;5.30;;;;;;;-145.18;100.00;60484.78;5012437;28;20026;-67
2023/04/01 05:29:57;;;;;;;11.07;6.00;;;;;;;-145.18;100.00;60484.78;5011814;28;20080;-66
2023/04/01 05:32:22;;;;;;;8.00;4.47;;;;;;;-145.18;100.00;60484.78;5012687;28;20116;-67
2023/04/01 05:34:51;;;;;;;9.43;5.47;;;;;;;-145.18;100.00;60484.78;5010157;28;20696;-66
2023/04/01 05:37:17;;;;;;;10.97;4.83;;;;;;;-145.18;100.00;60484.78;5012272;28;20027;-66
2023/04/01 05:39:42;;;;;;;10.80;5.80;;;;;;;-145.18;100.00;60484.78;5012561;28;20061;-66
2023/04/01 05:42:08;;;;;;;14.27;6.37;;;;;;;-145.18;100.00;60484.78;5015440;28;20040;-67
2023/04/01 05:44:35;;;;;;;8.00;5.10;;;;;;;-145.18;100.00;60484.78;5015295;28;20189;-66
2023/04/01 05:47:00;;;;;;;13.40;5.90;;;;;;;-145.18;100.00;60484.78;5014592;28;20026;-66
2023/04/01 05:49:26;;;;;;;9.90;5.73;;;;;;;-145.18;100.00;60484.78;5015534;28;20048;-66
2023/04/01 05:51:51;;;;;;;11.77;6.23;;;;;;;-145.18;100.00;60484.78;5012140;28;20045;-66
2023/04/01 05:54:18;;;;;;;9.50;5.90;;;;;;;-145.18;100.00;60484.78;5013425;28;20041;-67
2023/04/01 05:56:43;;;;;;;8.83;4.60;;;;;;;-145.18;100.00;60484.78;5034680;28;20112;-66
2023/04/01 05:59:11;;;;;;;9.37;5.00;;;;;;;-145.18;100.00;60484.78;5032077;28;20113;-66
2023/04/01 06:01:36;;;;;;;9.23;5.07;;;;;;;-145.18;100.00;60484.78;5014492;28;20045;-65
2023/04/01 06:04:02;;;;;;;7.80;4.57;;;;;;;-145.18;100.00;60484.78;5013860;28;20037;-66
2023/04/01 06:06:29;;;;;;;7.30;4.70;;;;;;;-145.18;100.00;60484.78;5014558;28;20018;-67
2023/04/01 06:08:57;;;;;;;8.40;4.90;;;;;;;-145.18;100.00;60484.78;5013555;28;20026;-66
2023/04/01 06:11:36;;;;;;;9.70;4.30;;;;;;;-145.18;100.00;60484.78;5015420;28;20026;-66
2023/04/01 06:14:22;;;;;;;6.80;3.80;;;;;;;-145.18;100.00;60484.78;5014437;28;20033;-65
2023/04/01 06:17:42;;;;;;;6.83;3.57;;;;;;;-145.18;100.00;60484.78;5013512;28;20029;-65
2023/04/01 06:20:55;;;;;;;8.20;4.00;;;;;;;-145.18;100.00;60484.78;4952339;28;20035;-66
2023/04/01 06:23:49;;;;;;;7.07;3.97;;;;;;;-145.18;100.00;60484.78;4908881;29;20058;-65
2023/04/01 06:26:48;;;;;;;9.43;4.40;;;;;;;-145.18;100.00;60484.78;4953607;29;20499;-66
2023/04/01 06:29:49;;;;;;;7.17;3.87;;;;;;;-145.18;100.00;60484.78;4928768;29;20039;-66
2023/04/01 06:32:49;;;;;;;7.50;4.43;;;;;;;-145.18;100.00;60484.78;4951839;28;20495;-66
2023/04/01 06:35:25;;;;;;;6.03;3.60;;;;;;;-145.18;100.00;60484.78;4946273;29;20081;-65
2023/04/01 06:38:25;;;;;;;5.30;2.70;;;;;;;-145.18;100.00;60484.78;4950053;28;20047;-65
2023/04/01 06:41:42;;;;;;;6.00;2.97;;;;;;;-145.18;100.00;60484.78;4915547;29;20055;-65
2023/04/01 06:44:41;;;;;;;4.43;2.60;;;;;;;-145.18;100.00;60484.78;4858845;29;20041;-65
2023/04/01 06:47:41;;;;;;;5.57;3.60;;;;;;;-145.18;100.00;60484.78;4857180;29;20049;-66
2023/04/01 06:50:45;;;;;;;6.63;3.30;;;;;;;-145.18;100.00;60484.78;4786604;29;20046;-66
2023/04/01 06:54:12;;;;;;;5.97;3.07;;;;;;;-145.18;100.00;60484.78;4791277;29;20066;-65
2023/04/01 06:56:42;;;;;;;5.13;3.30;;;;;;;-145.18;100.00;60484.78;4750227;30;20536;-66
2023/04/01 06:59:25;;;;;;;5.57;3.60;;;;;;;-145.18;100.00;60484.78;4746078;29;20074;-65
2023/04/01 07:02:01;;;;;;;4.60;2.77;;;;;;;-145.18;100.00;60484.78;4745368;30;20508;-67
2023/04/01 07:04:31;;;;;;;5.43;3.20;;;;;;;-145.18;100.00;60484.78;4768556;30;20052;-66
2023/04/01 07:07:05;;;;;;;10.43;3.50;;;;;;;-145.18;100.00;60484.78;4760280;30;20055;-67
2023/04/01 07:09:40;;;;;;;5.80;3.63;;;;;;;-145.18;100.00;60484.78;4767156;30;20183;-67
2023/04/01 07:12:47;;;;;;;6.40;3.57;;;;;;;-145.18;100.00;60484.78;4750435;30;20671;-67
2023/04/01 07:15:39;;;;;;;5.20;3.07;;;;;;;-145.18;100.00;60484.78;4754638;30;20056;-64
2023/04/01 07:18:14;;;;;;;3.70;2.17;;;;;;;-145.18;100.00;60484.78;4801035;29;20048;-64
2023/04/01 07:20:39;;;;;;;4.00;1.67;;;;;;;-145.18;100.00;60484.78;4842132;29;20038;-65
2023/04/01 07:23:36;;;;;;;4.93;2.90;;;;;;;-145.18;100.00;60484.78;4841392;29;20042;-66
2023/04/01 07:26:35;;;;;;;6.00;2.90;;;;;;;-145.18;100.00;60484.78;4842150;29;20038;-66
2023/04/01 07:29:00;;;;;;;4.17;2.50;;;;;;;-145.18;100.00;60484.78;4853665;29;20049;-66
2023/04/01 07:31:52;;;;;;;4.43;2.27;;;;;;;-145.18;100.00;60484.78;4953991;28;20039;-66
2023/04/01 07:34:28;;;;;;;3.85;2.08;;;;;;;-145.18;100.00;60484.78;4963880;28;20546;-65
2023/04/01 07:37:22;;;;;;;2.93;1.70;;;;;;;-145.18;100.00;60484.78;4954858;28;20118;-65
2023/04/01 07:40:27;;;;;;;3.57;2.27;;;;;;;-145.18;100.00;60484.78;4957162;28;20053;-65
2023/04/01 07:43:46;;;;;;;4.53;2.30;;;;;;;-145.18;100.00;60484.78;4950860;28;20043;-66
2023/04/01 07:46:38;;;;;;;4.97;2.87;;;;;;;-145.18;100.00;60484.78;4860094;29;20041;-66
2023/04/01 07:49:11;;;;;;;3.13;1.75;;;;;;;-145.18;100.00;60484.78;4857832;29;20049;-65
2023/04/01 07:52:38;;;;;;;3.67;1.70;;;;;;;-145.18;100.00;60484.78;4852875;29;20576;-65
2023/04/01 07:55:36;;;;;;;4.20;1.60;;;;;;;-145.18;100.00;60484.78;4821789;29;20573;-65
2023/04/01 07:58:45;;;;;;;1.77;0.90;;;;;;;-145.18;100.00;60484.78;4821633;29;20027;-65
2023/04/01 08:01:47;;;;;;;2.20;1.20;;;;;;;-145.18;100.00;60484.78;4805657;29;20527;-65
2023/04/01 08:04:37;;;;;;;2.72;1.50;;;;;;;-145.18;100.00;60484.78;4829102;29;20046;-65
2023/04/01 08:07:33;;;;;;;2.83;1.63;;;;;;;-145.18;100.00;60484.78;4830192;29;20042;-66
2023/04/01 08:10:40;;;;;;;2.80;1.40;;;;;;;-145.18;100.00;60484.78;4841060;29;20081;-66
2023/04/01 08:13:33;;;;;;;3.60;1.50;;;;;;;-145.18;100.00;60484.78;4814289;29;20103;-65
2023/04/01 08:16:45;;;;;;;3.67;1.80;;;;;;;-145.18;100.00;60484.78;4823070;29;20133;-65
2023/04/01 08:19:46;;;;;;;3.22;1.75;;;;;;;-145.18;100.00;60484.78;4805084;29;20054;-65
2023/04/01 08:22:30;;;;;;;2.95;1.63;;;;;;;-145.18;100.00;60484.78;4803080;29;20038;-65
2023/04/01 08:25:02;;;;;;;3.83;1.73;;;;;;;-145.18;100.00;60484.78;4817319;29;20045;-65
2023/04/01 08:27:48;;;;;;;2.67;1.55;;;;;;;-145.18;100.00;60484.78;4859332;29;20045;-65
2023/04/01 08:30:25;;;;;;;1.80;1.03;;;;;;;-145.18;100.00;60484.78;4858559;29;20086;-65
2023/04/01 08:33:26;;;;;;;2.77;1.60;;;;;;;-145.18;100.00;60484.78;4858876;29;20052;-65
2023/04/01 08:36:15;;;;;;;3.00;1.80;;;;;;;-145.18;100.00;60484.78;4851705;29;20144;-65
2023/04/01 08:38:50;;;;;;;3.40;1.70;;;;;;;-145.18;100.00;60484.78;4853814;29;20305;-65
2023/04/01 08:42:05;;;;;;;3.33;1.80;;;;;;;-145.18;100.00;60484.78;4853791;29;20517;-65
2023/04/01 08:45:12;;;;;;;4.27;1.90;;;;;;;-145.18;100.00;60484.78;4821660;29;20057;-65
2023/04/01 08:48:09;;;;;;;4.67;2.17;;;;;;;-145.18;100.00;60484.78;4817100;29;20034;-65
2023/04/01 08:51:27;;;;;;;3.53;2.20;;;;;;;-145.18;100.00;60484.78;4822158;29;20054;-66
2023/04/01 08:54:17;;;;;;;5.13;2.70;;;;;;;-145.18;100.00;60484.78;4820654;29;20065;-67
2023/04/01 08:56:55;;;;;;;3.53;1.83;;;;;;;-145.18;100.00;60484.78;4836727;29;20042;-67
2023/04/01 08:59:57;;;;;;;4.93;2.47;;;;;;;-145.18;100.00;60484.78;4871058;29;20410;-67
2023/04/01 09:03:04;;;;;;;5.47;2.47;;;;;;;-145.18;100.00;60484.78;4870569;29;20052;-67
2023/04/01 09:06:05;;;;;;;4.00;2.70;;;;;;;-145.18;100.00;60484.78;4868132;29;20039;-67
2023/04/01 09:09:14;;;;;;;3.00;2.00;;;;;;;-145.18;100.00;60484.78;4873494;29;20044;-67
2023/04/01 09:12:31;;;;;;;3.20;1.60;;;;;;;-145.18;100.00;60484.78;4875174;29;20095;-66
2023/04/01 09:15:31;;;;;;;3.13;1.67;;;;;;;-145.18;100.00;60484.78;4796468;29;20051;-66
2023/04/01 09:18:24;;;;;;;2.77;1.60;;;;;;;-145.18;100.00;60484.78;4801842;29;20084;-67
2023/04/01 09:21:47;;;;;;;3.83;2.23;;;;;;;-145.18;100.00;60484.78;4804180;29;20046;-67
2023/04/01 09:24:50;;;;;;;3.80;2.00;;;;;;;-145.18;100.00;60484.78;4823015;29;20053;-67
2023/04/01 09:27:30;;;;;;;3.43;1.93;;;;;;;-145.18;100.00;60484.78;4821596;29;20574;-66
2023/04/01 09:30:19;;;;;;;3.20;1.77;;;;;;;-145.18;100.00;60484.78;4821057;29;20075;-67
2023/04/01 09:33:28;;;;;;;3.27;1.87;;;;;;;-145.18;100.00;60484.78;4829276;29;20046;-67
2023/04/01 09:36:38;;;;;;;2.60;1.60;;;;;;;-145.18;100.00;60484.78;4757357;29;20467;-67
2023/04/01 09:39:50;;;;;;;3.90;2.00;;;;;;;-145.18;100.00;60484.78;4770494;29;20050;-67
2023/04/01 09:42:37;;;;;;;2.73;1.60;;;;;;;-145.18;100.00;60484.78;4766968;30;20564;-67
2023/04/01 09:45:17;;;;;;;2.67;1.50;;;;;;;-145.18;100.00;60484.78;4766940;30;20062;-65
2023/04/01 09:48:20;;;;;;;2.30;1.30;;;;;;;-145.18;100.00;60484.78;4766232;30;20043;-65
2023/04/01 09:51:11;;;;;;;3.20;1.83;;;;;;;-145.18;100.00;60484.78;4752037;29;20056;-65
2023/04/01 09:53:48;;;;;;;2.47;1.52;;;;;;;-145.18;100.00;60484.78;4782953;30;20059;-65
2023/04/01 09:57:08;;;;;;;2.37;1.40;;;;;;;-145.18;100.00;60484.78;4784556;29;20523;-65
2023/04/01 10:00:12;;;;;;;3.20;1.80;;;;;;;-145.18;100.00;60484.78;4730976;30;20061;-65
2023/04/01 10:03:18;;;;;;;1.87;1.10;;;;;;;-145.18;100.00;60484.78;4708924;30;20549;-65
2023/04/01 10:06:23;;;;;;;2.90;1.70;;;;;;;-145.18;100.00;60484.78;4718299;30;20056;-65
2023/04/01 10:09:17;;;;;;;2.53;1.43;;;;;;;-145.18;100.00;60484.78;4679465;30;20049;-65
2023/04/01 10:12:21;;;;;;;2.23;1.30;;;;;;;-145.18;100.00;60484.78;4688305;30;20530;-67
2023/04/01 10:15:43;;;;;;;2.10;1.20;;;;;;;-145.18;100.00;60484.78;4703062;30;20116;-68
2023/04/01 10:18:27;;;;;;;;;;;;;;;-145.18;100.00;60484.78;4744062;30;20031;-67
2023/04/01 10:21:41;;;;;;;2.90;1.10;;;;;;;-145.18;100.00;60484.78;4766715;30;19922;-67
2023/04/01 10:24:56;;;;;;;1.80;0.90;;;;;;;-145.18;100.00;60484.78;4784827;29;20043;-67
2023/04/01 10:28:26;;;;;;;1.30;0.83;;;;;;;-145.18;100.00;60484.78;4782718;29;20069;-66
2023/04/01 10:31:56;;;;;;;1.87;1.07;;;;;;;-145.18;100.00;60484.78;4806970;29;20526;-66
2023/04/01 10:34:46;;;;;;;1.17;0.73;;;;;;;-145.18;100.00;60484.78;4795507;29;20520;-67
2023/04/01 10:38:10;;;;;;;0.87;0.60;;;;;;;-145.18;100.00;60484.78;4801064;29;20519;-66
2023/04/01 10:40:57;;;;;;;1.10;0.70;;;;;;;-145.18;100.00;60484.78;4756761;29;20051;-67
2023/04/01 10:44:13;;;;;;;1.03;0.80;;;;;;;-145.18;100.00;60484.78;4813808;29;20117;-68
2023/04/01 10:47:23;;;;;;;1.47;0.83;;;;;;;-145.18;100.00;60484.78;4834402;29;20061;-67
2023/04/01 10:50:36;;;;;;;1.17;0.70;;;;;;;-145.18;100.00;60484.78;4812524;29;20057;-67
2023/04/01 10:53:37;;;;;;;1.87;1.00;;;;;;;-145.18;100.00;60484.78;4805254;29;20099;-67
2023/04/01 10:56:31;;;;;;;1.90;1.00;;;;;;;-145.18;100.00;60484.78;4802571;29;20129;-67
2023/04/01 10:59:52;;;;;;;1.40;0.80;;;;;;;-145.18;100.00;60484.78;4802264;29;20078;-67
2023/04/01 11:03:01;;;;;;;0.50;0.30;;;;;;;-145.18;100.00;60484.78;4765260;30;20114;-66
2023/04/01 11:06:13;;;;;;;1.13;0.57;;;;;;;-145.18;100.00;60484.78;4782217;29;20516;-67
2023/04/01 11:09:49;;;;;;;1.17;0.80;;;;;;;-145.18;100.00;60484.78;4735401;30;20052;-67
2023/04/01 11:13:02;;;;;;;1.13;0.73;;;;;;;-145.18;100.00;60484.78;4759081;30;20051;-67
2023/04/01 11:16:09;;;;;;;0.93;0.60;;;;;;;-145.18;100.00;60484.78;4714580;30;20372;-68
2023/04/01 11:19:16;;;;;;;1.37;0.60;;;;;;;-145.18;100.00;60484.78;4664174;30;20050;-65
2023/04/01 11:22:30;;;;;;;0.70;0.60;;;;;;;-145.18;100.00;60484.78;4663442;30;20050;-67
2023/04/01 11:25:35;;;;;;;0.57;0.50;;;;;;;-145.18;100.00;60484.78;4627859;30;20540;-67
2023/04/01 11:28:42;;;;;;;1.37;0.77;;;;;;;-145.18;100.00;60484.78;4698622;30;20042;-65
2023/04/01 11:31:39;;;;;;;1.10;0.73;;;;;;;-145.18;100.00;60484.78;4718666;30;20142;-65
2023/04/01 11:34:21;;;;;;;1.20;0.70;;;;;;;-145.18;100.00;60484.78;4762327;30;20521;-67
2023/04/01 11:37:40;;;;;;;1.30;0.90;;;;;;;-145.18;100.00;60484.78;4747444;30;20044;-67
2023/04/01 11:40:23;;;;;;;1.17;0.77;;;;;;;-145.18;100.00;60484.78;4762728;30;20578;-67
2023/04/01 11:43:27;;;;;;;1.10;0.60;;;;;;;-145.18;100.00;60484.78;4769441;30;20152;-66
2023/04/01 11:46:16;;;;;;;0.97;0.60;;;;;;;-145.18;100.00;60484.78;4724622;30;20607;-67
2023/04/01 11:49:07;;;;;;;0.60;0.60;;;;;;;-145.18;100.00;60484.78;4738895;30;20051;-67
2023/04/01 11:52:05;;;;;;;4.15;2.38;;;;;;;-145.18;100.00;60484.78;4781524;29;20037;-66
2023/04/01 11:54:58;;;;;;;1.83;1.10;;;;;;;-145.18;100.00;60484.78;4821042;29;20562;-66
2023/04/01 11:58:11;;;;;;;4.50;3.20;;;;;;;-145.18;100.00;60484.78;4822445;29;20119;-67
2023/04/01 12:01:04;;;;;;;2.43;1.50;;;;;;;-145.18;100.00;60484.78;4770835;29;20482;-67
2023/04/01 12:04:25;;;;;;;3.17;1.87;;;;;;;-145.18;100.00;60484.78;4839520;29;20033;-67
2023/04/01 12:07:50;;;;;;;4.30;1.67;;;;;;;-145.18;100.00;60484.78;4826999;29;20171;-67
2023/04/01 12:10:54;;;;;;;1.90;1.07;;;;;;;-145.18;100.00;60484.78;4776175;30;20089;-67
2023/04/01 12:13:38;;;;;;;2.90;1.50;;;;;;;-145.18;100.00;60484.78;4769881;29;20122;-67
2023/04/01 12:16:45;;;;;;;2.60;1.37;;;;;;;-145.18;100.00;60484.78;4797329;29;20137;-66